createdAt,value
2023-01-22T00:00:15.730Z,12.08
2023-01-22T00:05:16.191Z,12.26
2023-01-22T00:10:15.320Z,12.16
2023-01-22T00:15:14.408Z,12.22
2023-01-22T00:20:14.581Z,12.06
2023-01-22T00:25:14.981Z,12.21
2023-01-22T00:30:14.149Z,12.19
2023-01-22T00:35:12.901Z,12.22
2023-01-22T00:40:13.099Z,12.21
2023-01-22T00:45:15.289Z,12.35
2023-01-22T00:50:14.142Z,12.19
2023-01-22T00:55:13.128Z,12.02
2023-01-22T01:00:16.176Z,11.88
2023-01-22T01:05:16.200Z,11.87
2023-01-22T01:10:16.803Z,11.83
2023-01-22T01:15:17.272Z,11.89
2023-01-22T01:20:16.997Z,11.96
2023-01-22T01:25:15.944Z,11.90
2023-01-22T01:30:16.864Z,11.64
2023-01-22T01:35:16.061Z,11.69
2023-01-22T01:40:15.052Z,11.54
2023-01-22T01:45:24.278Z,11.60
2023-01-22T01:50:26.671Z,11.61
2023-01-22T01:55:28.891Z,11.56
2023-01-22T02:00:32.618Z,11.64
2023-01-22T02:05:39.617Z,11.56
2023-01-22T02:10:39.422Z,11.49
2023-01-22T02:15:40.615Z,11.53
2023-01-22T02:20:41.467Z,11.67
2023-01-22T02:25:40.326Z,11.57
2023-01-22T02:30:39.174Z,11.58
2023-01-22T02:35:37.907Z,11.81
2023-01-22T02:40:49.221Z,11.84
2023-01-22T02:45:50.990Z,11.74
2023-01-22T02:50:50.261Z,11.73
2023-01-22T02:55:50.497Z,11.84
2023-01-22T03:00:49.310Z,12.03
2023-01-22T03:05:52.003Z,12.07
2023-01-22T03:10:52.238Z,11.83
2023-01-22T03:16:08.742Z,11.88
2023-01-22T03:21:20.402Z,11.74
2023-01-22T03:26:22.152Z,11.68
2023-01-22T03:31:21.287Z,11.79
2023-01-22T03:36:20.505Z,11.93
2023-01-22T03:41:24.795Z,11.90
2023-01-22T03:46:23.750Z,11.94
2023-01-22T03:51:26.399Z,12.04
2023-01-22T03:56:27.487Z,12.08
2023-01-22T04:01:31.466Z,12.10
2023-01-22T04:06:31.484Z,12.27
2023-01-22T04:11:31.990Z,12.39
2023-01-22T04:16:31.031Z,12.45
2023-01-22T04:21:32.532Z,12.41
2023-01-22T04:26:34.655Z,12.35
2023-01-22T04:31:35.374Z,12.39
2023-01-22T04:36:52.555Z,12.46
2023-01-22T04:41:54.057Z,12.49
2023-01-22T04:46:52.959Z,12.46
2023-01-22T04:51:54.224Z,12.50
2023-01-22T04:56:54.749Z,12.51
2023-01-22T05:01:53.534Z,12.49
2023-01-22T05:06:56.687Z,12.39
2023-01-22T05:11:57.053Z,12.26
2023-01-22T05:16:56.727Z,12.30
2023-01-22T05:21:55.619Z,12.15
2023-01-22T05:26:56.207Z,12.08
2023-01-22T05:32:00.176Z,11.85
2023-01-22T05:37:03.334Z,11.72
2023-01-22T05:42:05.983Z,11.73
2023-01-22T05:47:05.767Z,11.79
2023-01-22T05:52:15.808Z,11.83
2023-01-22T05:57:17.388Z,11.90
2023-01-22T06:02:34.254Z,11.81
2023-01-22T06:07:33.426Z,11.94
2023-01-22T06:12:34.697Z,11.98
2023-01-22T06:17:33.665Z,11.83
2023-01-22T06:22:33.748Z,11.78
2023-01-22T06:27:35.785Z,11.97
2023-01-22T06:32:34.631Z,11.80
2023-01-22T06:37:34.099Z,11.70
2023-01-22T06:42:33.507Z,11.71
2023-01-22T06:47:33.946Z,11.78
2023-01-22T06:52:34.336Z,11.85
2023-01-22T06:57:33.172Z,11.89
2023-01-22T07:02:33.379Z,12.05
2023-01-22T07:07:32.172Z,12.10
2023-01-22T07:12:30.950Z,12.22
2023-01-22T07:17:29.796Z,12.46
2023-01-22T07:22:31.274Z,12.66
2023-01-22T07:27:30.491Z,12.58
2023-01-22T07:32:29.342Z,12.75
2023-01-22T07:37:29.583Z,12.88
2023-01-22T07:42:28.317Z,13.11
2023-01-22T07:47:27.235Z,13.05
2023-01-22T07:52:26.112Z,13.24
2023-01-22T07:57:26.270Z,13.19
2023-01-22T08:02:25.197Z,12.86
2023-01-22T08:07:27.780Z,12.68
2023-01-22T08:12:28.292Z,12.47
2023-01-22T08:17:27.061Z,12.63
2023-01-22T08:22:25.894Z,12.75
2023-01-22T08:27:24.840Z,12.80
2023-01-22T08:32:25.103Z,13.05
2023-01-22T08:37:24.633Z,13.12
2023-01-22T08:42:23.469Z,13.32
2023-01-22T08:47:22.518Z,13.47
2023-01-22T08:52:22.688Z,13.57
2023-01-22T08:57:21.511Z,13.75
2023-01-22T09:02:20.500Z,13.85
2023-01-22T09:07:19.273Z,13.95
2023-01-22T09:12:19.520Z,14.03
2023-01-22T09:17:18.561Z,14.08
2023-01-22T09:22:17.538Z,14.15
2023-01-22T09:27:16.244Z,14.22
2023-01-22T09:32:16.512Z,14.29
2023-01-22T09:37:15.475Z,14.01
2023-01-22T09:42:20.554Z,14.02
2023-01-22T09:47:26.668Z,14.00
2023-01-22T09:52:29.737Z,13.88
2023-01-22T09:57:32.516Z,13.89
2023-01-22T10:02:38.809Z,13.95
2023-01-22T10:07:42.627Z,13.66
2023-01-22T10:12:41.504Z,13.64
2023-01-22T10:17:42.934Z,13.66
2023-01-22T10:22:41.876Z,13.71
2023-01-22T10:27:41.246Z,13.37
2023-01-22T10:32:41.927Z,13.13
2023-01-22T10:37:45.304Z,13.13
2023-01-22T10:42:44.123Z,13.25
2023-01-22T10:47:44.257Z,13.37
2023-01-22T10:52:45.768Z,13.47
2023-01-22T10:57:53.741Z,13.55
2023-01-22T11:02:54.149Z,13.64
2023-01-22T11:07:55.704Z,13.65
2023-01-22T11:12:59.585Z,13.69
2023-01-22T11:18:02.741Z,13.81
2023-01-22T11:23:07.415Z,13.72
2023-01-22T11:28:17.880Z,13.50
2023-01-22T11:33:32.263Z,13.58
2023-01-22T11:38:39.571Z,13.71
2023-01-22T11:43:56.818Z,13.94
2023-01-22T11:49:07.322Z,14.08
2023-01-22T11:54:27.565Z,14.25
2023-01-22T11:59:46.096Z,14.37
2023-01-22T12:05:18.697Z,14.47
2023-01-22T12:10:42.766Z,14.64
2023-01-22T12:15:48.792Z,14.75
2023-01-22T12:21:10.446Z,14.88
2023-01-22T12:26:14.793Z,14.83
2023-01-22T12:31:19.519Z,14.86
2023-01-22T12:36:23.068Z,14.82
2023-01-22T12:41:42.869Z,14.97
2023-01-22T12:46:51.871Z,15.04
2023-01-22T12:51:54.183Z,15.12
2023-01-22T12:56:56.634Z,15.09
2023-01-22T13:02:00.518Z,15.04
2023-01-22T13:07:21.342Z,14.93
2023-01-22T13:12:28.507Z,14.97
2023-01-22T13:17:31.020Z,14.93
2023-01-22T13:22:32.509Z,14.94
2023-01-22T13:27:34.653Z,15.00
2023-01-22T13:32:33.403Z,15.01
2023-01-22T13:37:38.324Z,15.02
2023-01-22T13:42:37.123Z,14.94
2023-01-22T13:47:37.103Z,14.99
2023-01-22T13:52:37.418Z,15.01
2023-01-22T13:57:36.326Z,15.03
2023-01-22T14:02:36.434Z,15.03
2023-01-22T14:07:38.117Z,15.05
2023-01-22T14:12:36.873Z,15.07
2023-01-22T14:17:35.644Z,15.07
2023-01-22T14:22:34.429Z,15.05
2023-01-22T14:27:43.545Z,15.11
2023-01-22T14:32:42.766Z,15.13
2023-01-22T14:37:41.766Z,15.16
2023-01-22T14:42:42.500Z,15.16
2023-01-22T14:47:41.268Z,15.13
2023-01-22T14:52:40.279Z,15.12
2023-01-22T14:57:39.414Z,15.09
2023-01-22T15:02:40.142Z,15.07
2023-01-22T15:07:39.881Z,15.07
2023-01-22T15:12:38.913Z,15.08
2023-01-22T15:17:39.223Z,15.05
2023-01-22T15:22:37.966Z,15.02
2023-01-22T15:27:36.761Z,15.00
2023-01-22T15:32:35.543Z,14.98
2023-01-22T15:37:35.909Z,14.94
2023-01-22T15:42:35.778Z,14.91
2023-01-22T15:47:34.768Z,14.89
2023-01-22T15:52:33.576Z,14.85
2023-01-22T15:57:33.871Z,14.81
2023-01-22T16:02:32.809Z,14.74
2023-01-22T16:07:31.702Z,14.69
2023-01-22T16:12:31.286Z,14.55
2023-01-22T16:17:31.558Z,14.53
2023-01-22T16:22:30.285Z,14.54
2023-01-22T16:27:30.390Z,14.54
2023-01-22T16:32:29.102Z,14.54
2023-01-22T16:37:29.318Z,14.52
2023-01-22T16:42:28.230Z,14.50
2023-01-22T16:47:27.152Z,14.25
2023-01-22T16:52:25.952Z,14.26
2023-01-22T16:57:26.233Z,14.24
2023-01-22T17:02:25.133Z,14.22
2023-01-22T17:07:33.218Z,14.22
2023-01-22T17:12:34.159Z,14.25
2023-01-22T17:17:33.195Z,14.22
2023-01-22T17:22:33.258Z,14.10
2023-01-22T17:27:33.762Z,14.04
2023-01-22T17:32:34.118Z,13.90
2023-01-22T17:37:33.095Z,13.83
2023-01-22T17:42:33.570Z,13.45
2023-01-22T17:47:39.744Z,13.49
2023-01-22T17:52:38.648Z,13.47
2023-01-22T17:57:41.422Z,13.44
2023-01-22T18:02:41.913Z,13.29
2023-01-22T18:07:41.452Z,13.26
2023-01-22T18:12:42.372Z,13.14
2023-01-22T18:17:41.272Z,13.09
2023-01-22T18:22:40.188Z,13.10
2023-01-22T18:27:39.255Z,12.86
2023-01-22T18:32:39.554Z,12.93
2023-01-22T18:37:38.491Z,12.86
2023-01-22T18:42:40.179Z,12.71
2023-01-22T18:47:40.547Z,12.65
2023-01-22T18:52:39.518Z,12.51
2023-01-22T18:57:57.044Z,12.46
2023-01-22T19:03:00.614Z,12.33
2023-01-22T19:07:59.586Z,12.33
2023-01-22T19:12:58.561Z,12.21
2023-01-22T19:17:57.387Z,12.19
2023-01-22T19:23:00.195Z,11.89
2023-01-22T19:27:59.051Z,11.83
2023-01-22T19:32:57.794Z,11.89
2023-01-22T19:37:58.101Z,11.93
2023-01-22T19:42:57.341Z,11.74
2023-01-22T19:47:59.389Z,11.77
2023-01-22T19:52:59.719Z,11.66
2023-01-22T19:57:58.549Z,11.66
2023-01-22T20:02:57.486Z,11.52
2023-01-22T20:07:59.463Z,11.53
2023-01-22T20:12:58.410Z,11.62
2023-01-22T20:17:57.787Z,11.44
2023-01-22T20:22:56.706Z,11.48
2023-01-22T20:27:56.896Z,11.38
2023-01-22T20:32:56.702Z,11.46
2023-01-22T20:37:55.474Z,11.33
2023-01-22T20:42:54.137Z,11.24
2023-01-22T20:47:54.389Z,11.40
2023-01-22T20:52:54.913Z,11.23
2023-01-22T20:57:53.667Z,10.85
2023-01-22T21:02:53.866Z,10.78
2023-01-22T21:07:52.673Z,10.68
2023-01-22T21:12:51.627Z,10.67
2023-01-22T21:17:50.523Z,10.72
2023-01-22T21:22:51.242Z,10.76
2023-01-22T21:27:51.227Z,10.86
2023-01-22T21:32:52.433Z,10.86
2023-01-22T21:37:52.579Z,10.95
2023-01-22T21:43:09.030Z,10.72
2023-01-22T21:48:08.244Z,10.76
2023-01-22T21:53:08.866Z,10.66
2023-01-22T21:58:08.925Z,10.64
2023-01-22T22:03:07.774Z,10.79
2023-01-22T22:08:08.185Z,10.58
2023-01-22T22:13:06.976Z,10.33
2023-01-22T22:18:05.961Z,10.37
2023-01-22T22:23:05.079Z,10.32
2023-01-22T22:28:05.652Z,10.53
2023-01-22T22:33:04.457Z,10.35
2023-01-22T22:38:03.292Z,10.39
2023-01-22T22:43:02.032Z,10.20
2023-01-22T22:48:02.218Z,10.18
2023-01-22T22:53:02.316Z,9.93
2023-01-22T22:58:01.091Z,10.20
2023-01-22T23:03:01.181Z,10.08
2023-01-22T23:08:00.038Z,10.11
2023-01-22T23:13:00.868Z,10.17
2023-01-22T23:18:01.937Z,10.10
2023-01-22T23:23:00.823Z,9.95
2023-01-22T23:27:59.633Z,9.88
2023-01-22T23:32:58.484Z,9.92
2023-01-22T23:37:58.677Z,9.77
2023-01-22T23:42:57.509Z,9.53
2023-01-22T23:47:56.645Z,9.36
2023-01-22T23:52:55.327Z,9.34
2023-01-22T23:57:56.215Z,9.29
